Time;durP1;ratioP1;P1;durP2;ratioP2;P2;SDS_P1;SDS_P2;PMS_P1;PMS_P2;Temp;Humidity;BMP_temperature;BMP_pressure;BME280_temperature;BME280_humidity;BME280_pressure;Samples;Min_cycle;Max_cycle;Signal;HPM_P1;HPM_P2
2020/12/21 00:01:16;;;;;;;19.80;11.48;;;179.20;2022.40;;;;;;5017933;28;20022;-79
2020/12/21 00:03:41;;;;;;;19.75;13.38;;;179.30;2022.40;;;;;;5018792;28;20307;-78
2020/12/21 00:06:12;;;;;;;21.65;13.02;;;179.20;2022.40;;;;;;5017738;28;20026;-78
2020/12/21 00:08:38;;;;;;;19.48;12.25;;;179.20;1996.80;;;;;;5018825;28;20037;-79
2020/12/21 00:11:05;;;;;;;20.08;11.45;;;154.50;2022.40;;;;;;5018690;28;20038;-79
2020/12/21 00:13:30;;;;;;;18.83;11.90;;;179.20;2022.40;;;;;;5016966;28;20042;-79
2020/12/21 00:15:56;;;;;;;19.45;11.60;;;179.20;2022.40;;;;;;5018462;28;20315;-79
2020/12/21 00:18:22;;;;;;;18.58;12.65;;;179.20;2022.40;;;;;;5018491;28;20026;-79
2020/12/21 00:20:48;;;;;;;17.33;11.93;;;179.20;2022.40;;;;;;5018703;28;20029;-79
2020/12/21 00:23:14;;;;;;;19.27;12.02;;;154.50;2022.40;;;;;;5000993;28;20125;-79
2020/12/21 00:25:40;;;;;;;16.73;11.93;;;154.50;2022.40;;;;;;5018271;28;20077;-78
2020/12/21 00:28:05;;;;;;;20.55;13.25;;;179.20;2022.40;;;;;;5018496;28;20021;-79
2020/12/21 00:30:31;;;;;;;22.00;13.45;;;154.50;2022.40;;;;;;5018359;28;20033;-78
2020/12/21 00:32:57;;;;;;;19.48;13.50;;;154.40;2022.40;;;;;;5018158;28;20297;-78
2020/12/21 00:35:22;;;;;;;20.80;12.95;;;154.30;2022.40;;;;;;5016444;28;20030;-78
2020/12/21 00:37:48;;;;;;;18.48;12.82;;;154.40;2022.40;;;;;;5018432;28;20025;-79
2020/12/21 00:40:14;;;;;;;19.13;13.35;;;154.30;2022.40;;;;;;5018478;28;20323;-78
2020/12/21 00:42:40;;;;;;;22.73;13.63;;;154.30;2048.00;;;;;;5018175;28;20049;-79
2020/12/21 00:45:05;;;;;;;20.58;13.27;;;154.30;2022.40;;;;;;5018714;28;20319;-78
2020/12/21 00:47:34;;;;;;;18.88;13.13;;;154.30;2048.00;;;;;;5018229;28;20037;-79
2020/12/21 00:49:59;;;;;;;20.67;13.30;;;154.30;2022.40;;;;;;5017562;28;20059;-79
2020/12/21 00:52:25;;;;;;;20.95;13.00;;;154.30;2022.40;;;;;;5017799;28;20038;-79
2020/12/21 00:54:51;;;;;;;20.45;13.32;;;154.30;2022.40;;;;;;4981748;28;20420;-78
2020/12/21 00:57:33;;;;;;;20.40;13.02;;;154.30;2022.40;;;;;;4981279;28;20034;-79
2020/12/21 01:00:04;;;;;;;20.98;14.32;;;154.30;2022.40;;;;;;4998284;28;20022;-78
2020/12/21 01:02:30;;;;;;;;;;;154.30;2022.40;;;;;;4998587;28;20026;-78
2020/12/21 01:04:55;;;;;;;20.55;13.85;;;154.30;2022.40;;;;;;4998067;28;19933;-78
2020/12/21 01:07:21;;;;;;;24.85;13.52;;;154.20;2022.40;;;;;;4996676;28;20113;-78
2020/12/21 01:09:47;;;;;;;23.08;14.38;;;154.30;2022.40;;;;;;4998278;28;20117;-78
2020/12/21 01:12:14;;;;;;;25.35;14.20;;;154.30;2022.40;;;;;;4997808;28;20110;-77
2020/12/21 01:14:40;;;;;;;20.55;13.70;;;154.20;2022.40;;;;;;4981020;28;20046;-78
2020/12/21 01:17:06;;;;;;;18.42;12.23;;;154.20;2022.40;;;;;;4997800;28;20029;-78
2020/12/21 01:19:32;;;;;;;23.88;13.15;;;154.30;2022.40;;;;;;4979836;28;20424;-78
2020/12/21 01:21:58;;;;;;;19.45;12.77;;;154.20;2022.40;;;;;;4980375;28;20117;-78
2020/12/21 01:24:24;;;;;;;23.30;15.55;;;154.20;2022.40;;;;;;4997077;28;20034;-78
2020/12/21 01:26:49;;;;;;;22.02;13.48;;;154.20;2022.40;;;;;;4980431;28;20290;-77
2020/12/21 01:29:15;;;;;;;23.60;14.35;;;154.10;2022.40;;;;;;4997880;28;20081;-77
2020/12/21 01:31:41;;;;;;;20.13;13.25;;;154.20;2022.40;;;;;;4997625;28;20351;-77
2020/12/21 01:34:06;;;;;;;23.02;13.80;;;154.20;2022.40;;;;;;4997400;28;20101;-78
2020/12/21 01:36:32;;;;;;;21.33;14.25;;;154.10;2022.40;;;;;;4997796;28;20098;-78
2020/12/21 01:38:59;;;;;;;25.63;15.98;;;154.00;2022.40;;;;;;4980305;28;20034;-77
2020/12/21 01:41:24;;;;;;;22.98;14.32;;;154.00;2022.40;;;;;;4997846;28;20323;-77
2020/12/21 01:43:55;;;;;;;23.23;14.65;;;154.00;2022.40;;;;;;4997948;28;20105;-77
2020/12/21 01:46:21;;;;;;;;;;;153.90;2048.00;;;;;;4997244;28;20031;-77
2020/12/21 01:48:47;;;;;;;20.70;12.85;;;153.90;2048.00;;;;;;4997409;28;19949;-78
2020/12/21 01:51:34;;;;;;;21.35;13.23;;;153.90;2048.00;;;;;;4979948;28;20482;-78
2020/12/21 01:54:00;;;;;;;24.48;14.45;;;154.00;2022.40;;;;;;5010334;28;20493;-77
2020/12/21 01:56:26;;;;;;;24.67;14.02;;;153.90;2022.40;;;;;;4999475;28;20061;-77
2020/12/21 01:58:51;;;;;;;22.45;14.52;;;154.00;2022.40;;;;;;4999294;28;20038;-78
2020/12/21 02:01:19;;;;;;;27.48;15.32;;;154.00;2022.40;;;;;;5015700;28;20033;-77
2020/12/21 02:03:45;;;;;;;23.00;14.40;;;153.90;2022.40;;;;;;5016995;28;20036;-78
2020/12/21 02:06:11;;;;;;;26.52;14.43;;;153.90;2022.40;;;;;;5016785;28;20018;-78
2020/12/21 02:08:37;;;;;;;22.10;13.65;;;153.90;2022.40;;;;;;5016822;28;20076;-78
2020/12/21 02:11:04;;;;;;;26.00;15.68;;;153.90;2022.40;;;;;;5016733;28;20044;-78
2020/12/21 02:13:29;;;;;;;27.02;14.77;;;154.00;2022.40;;;;;;5016531;28;20034;-78
2020/12/21 02:15:56;;;;;;;25.38;14.20;;;154.00;2022.40;;;;;;5016702;28;20022;-78
2020/12/21 02:18:21;;;;;;;21.85;13.45;;;154.00;2022.40;;;;;;5016592;28;20045;-78
2020/12/21 02:20:47;;;;;;;23.38;15.15;;;154.00;2022.40;;;;;;5016486;28;20113;-77
2020/12/21 02:23:13;;;;;;;20.17;13.43;;;154.00;2022.40;;;;;;5016741;28;20029;-78
2020/12/21 02:25:39;;;;;;;24.55;13.98;;;154.00;2022.40;;;;;;5016533;28;20363;-78
2020/12/21 02:28:05;;;;;;;22.70;13.48;;;154.00;1996.80;;;;;;5016446;28;20040;-78
2020/12/21 02:30:30;;;;;;;19.88;13.63;;;154.00;1996.80;;;;;;5016546;28;20026;-78
2020/12/21 02:32:56;;;;;;;19.23;13.20;;;154.00;1996.80;;;;;;5014395;28;20124;-78
2020/12/21 02:35:22;;;;;;;22.20;14.20;;;154.00;1996.80;;;;;;5016732;28;20030;-77
2020/12/21 02:37:47;;;;;;;26.73;14.63;;;154.10;1996.80;;;;;;5019069;28;20101;-78
2020/12/21 02:40:13;;;;;;;21.70;13.45;;;154.00;1996.80;;;;;;5020335;28;20022;-78
2020/12/21 02:42:39;;;;;;;22.42;13.43;;;154.10;1996.80;;;;;;5002868;28;20033;-78
2020/12/21 02:45:05;;;;;;;22.55;13.52;;;154.00;1996.80;;;;;;5020392;28;20030;-78
2020/12/21 02:47:31;;;;;;;25.77;15.35;;;153.90;1996.80;;;;;;5020238;28;20116;-78
2020/12/21 02:49:57;;;;;;;22.58;12.90;;;153.90;2022.40;;;;;;5019294;28;20030;-77
2020/12/21 02:52:23;;;;;;;25.20;14.07;;;154.00;2022.40;;;;;;5019832;28;20036;-78
2020/12/21 02:54:48;;;;;;;25.25;16.30;;;153.90;2022.40;;;;;;5020103;28;20026;-78
2020/12/21 02:57:15;;;;;;;25.10;15.82;;;153.90;2022.40;;;;;;5019894;28;20033;-78
2020/12/21 02:59:41;;;;;;;26.38;15.77;;;153.80;2022.40;;;;;;5020131;28;20065;-78
2020/12/21 03:02:07;;;;;;;28.50;18.38;;;153.80;2022.40;;;;;;5019910;28;20033;-78
2020/12/21 03:04:33;;;;;;;23.90;15.20;;;153.90;2022.40;;;;;;5019930;28;20025;-79
2020/12/21 03:07:00;;;;;;;29.98;18.35;;;153.80;2022.40;;;;;;5020070;28;20030;-78
2020/12/21 03:09:26;;;;;;;28.38;17.92;;;153.80;2022.40;;;;;;5019902;28;20029;-79
2020/12/21 03:11:52;;;;;;;25.45;15.50;;;153.70;2022.40;;;;;;5019655;28;20030;-79
2020/12/21 03:14:18;;;;;;;28.90;18.10;;;153.70;2022.40;;;;;;5019812;28;20503;-77
2020/12/21 03:16:44;;;;;;;28.23;17.27;;;153.70;2022.40;;;;;;5018673;28;20121;-78
2020/12/21 03:19:09;;;;;;;30.17;16.92;;;153.70;2022.40;;;;;;5019548;28;20018;-77
2020/12/21 03:21:35;;;;;;;31.45;17.38;;;128.90;2048.00;;;;;;5019860;28;20104;-78
2020/12/21 03:24:01;;;;;;;30.20;17.70;;;153.60;2048.00;;;;;;5019415;28;20085;-79
2020/12/21 03:26:27;;;;;;;30.10;16.50;;;128.90;2048.00;;;;;;5019482;28;20033;-78
2020/12/21 03:28:52;;;;;;;32.13;17.85;;;153.60;2022.40;;;;;;5002356;28;20116;-78
2020/12/21 03:31:18;;;;;;;29.17;17.75;;;128.90;2022.40;;;;;;5019448;28;20022;-78
2020/12/21 03:33:44;;;;;;;27.60;16.35;;;128.80;2048.00;;;;;;5002015;28;20052;-78
2020/12/21 03:36:09;;;;;;;31.20;17.67;;;128.90;2048.00;;;;;;5019180;28;20139;-78
2020/12/21 03:38:35;;;;;;;28.52;16.60;;;128.80;2048.00;;;;;;5019581;28;20026;-79
2020/12/21 03:41:01;;;;;;;27.13;16.20;;;128.80;2048.00;;;;;;5019004;28;20403;-78
2020/12/21 03:43:27;;;;;;;26.80;15.82;;;128.80;2048.00;;;;;;5019284;28;20050;-78
2020/12/21 03:45:52;;;;;;;23.20;15.27;;;128.70;2048.00;;;;;;5019280;28;20033;-78
2020/12/21 03:48:18;;;;;;;26.25;14.75;;;128.80;2048.00;;;;;;5018590;28;20296;-78
2020/12/21 03:50:44;;;;;;;29.50;17.83;;;128.80;2022.40;;;;;;5019084;28;20048;-78
2020/12/21 03:53:09;;;;;;;25.60;16.73;;;128.70;2048.00;;;;;;5019043;28;20042;-78
2020/12/21 03:55:35;;;;;;;23.20;15.25;;;128.70;2022.40;;;;;;5019685;28;20029;-78
2020/12/21 03:58:01;;;;;;;29.33;16.48;;;128.60;2048.00;;;;;;5028362;28;20033;-78
2020/12/21 04:00:27;;;;;;;30.13;16.58;;;128.70;2048.00;;;;;;5019007;28;20470;-79
2020/12/21 04:02:52;;;;;;;29.05;16.95;;;128.60;2048.00;;;;;;5018782;28;20307;-78
2020/12/21 04:05:18;;;;;;;28.25;16.95;;;128.60;2048.00;;;;;;5018732;28;20053;-78
2020/12/21 04:07:44;;;;;;;29.23;17.08;;;128.60;2048.00;;;;;;5019126;28;20434;-78
2020/12/21 04:10:09;;;;;;;31.02;19.00;;;128.60;2048.00;;;;;;5017803;28;20022;-78
2020/12/21 04:12:36;;;;;;;35.03;19.63;;;128.50;2048.00;;;;;;5018831;28;20038;-78
2020/12/21 04:15:03;;;;;;;36.83;23.02;;;128.40;2048.00;;;;;;5018691;28;20045;-78
2020/12/21 04:17:29;;;;;;;38.65;24.52;;;128.50;2048.00;;;;;;5018525;28;20026;-78
2020/12/21 04:19:54;;;;;;;30.77;20.40;;;128.50;2048.00;;;;;;5001157;28;20041;-78
2020/12/21 04:22:20;;;;;;;28.75;18.20;;;128.40;2048.00;;;;;;5018273;28;20470;-78
2020/12/21 04:24:46;;;;;;;44.97;25.50;;;128.30;2048.00;;;;;;5018821;28;20022;-77
2020/12/21 04:27:11;;;;;;;59.38;31.65;;;128.40;2048.00;;;;;;5018589;28;20114;-78
2020/12/21 04:29:37;;;;;;;55.38;27.27;;;128.30;2048.00;;;;;;5018633;28;20030;-78
2020/12/21 04:32:04;;;;;;;97.82;39.95;;;128.30;2048.00;;;;;;5018247;28;20026;-77
2020/12/21 04:34:30;;;;;;;53.67;23.50;;;128.30;2048.00;;;;;;5018268;28;20058;-78
2020/12/21 04:36:56;;;;;;;31.40;18.50;;;128.30;2048.00;;;;;;5016649;28;20030;-78
2020/12/21 04:39:22;;;;;;;32.75;20.48;;;128.30;2048.00;;;;;;5018144;28;20041;-78
2020/12/21 04:41:55;;;;;;;32.10;18.92;;;128.30;2048.00;;;;;;5018231;28;20026;-78
2020/12/21 04:44:22;;;;;;;34.15;16.60;;;128.20;2073.60;;;;;;5018169;28;20056;-77
2020/12/21 04:46:52;;;;;;;29.75;17.63;;;128.20;2073.60;;;;;;5018093;28;20097;-77
2020/12/21 04:49:17;;;;;;;29.55;17.02;;;128.20;2073.60;;;;;;5018066;28;20026;-79
2020/12/21 04:51:46;;;;;;;35.97;19.05;;;128.10;2073.60;;;;;;5017811;28;20076;-78
2020/12/21 04:54:13;;;;;;;31.85;18.45;;;128.20;2048.00;;;;;;5017874;28;20046;-78
2020/12/21 04:56:40;;;;;;;32.60;17.08;;;128.10;2073.60;;;;;;5018125;28;20029;-78
2020/12/21 04:59:07;;;;;;;32.70;17.90;;;128.10;2073.60;;;;;;5017226;28;20105;-77
2020/12/21 05:01:33;;;;;;;32.88;17.08;;;128.20;2048.00;;;;;;5016596;28;20026;-78
2020/12/21 05:03:59;;;;;;;31.23;17.75;;;128.20;2048.00;;;;;;5000553;28;20124;-78
2020/12/21 05:06:25;;;;;;;27.83;17.48;;;128.20;2048.00;;;;;;5018043;28;20030;-78
2020/12/21 05:09:08;;;;;;;31.25;17.25;;;128.30;2048.00;;;;;;5017813;28;20022;-78
2020/12/21 05:11:36;;;;;;;34.47;19.65;;;128.20;2048.00;;;;;;5015934;28;20044;-78
2020/12/21 05:14:09;;;;;;;32.50;18.77;;;128.20;2048.00;;;;;;5017628;28;20030;-78
2020/12/21 05:16:35;;;;;;;29.08;17.00;;;128.10;2048.00;;;;;;5017518;28;20026;-78
2020/12/21 05:19:01;;;;;;;27.88;14.68;;;128.10;2048.00;;;;;;5017561;28;20034;-78
2020/12/21 05:21:27;;;;;;;24.42;14.50;;;128.10;2073.60;;;;;;5000044;28;20021;-79
2020/12/21 05:24:02;;;;;;;28.30;15.52;;;128.10;2048.00;;;;;;5016231;28;20037;-78
2020/12/21 05:26:33;;;;;;;22.77;14.23;;;128.20;2048.00;;;;;;5017511;28;20092;-78
2020/12/21 05:28:59;;;;;;;23.67;13.95;;;128.10;2048.00;;;;;;5017105;28;20029;-77
2020/12/21 05:31:26;;;;;;;25.80;13.93;;;128.10;2073.60;;;;;;5017249;28;20041;-78
2020/12/21 05:33:52;;;;;;;27.13;16.33;;;128.10;2048.00;;;;;;5017143;28;20049;-80
2020/12/21 05:36:23;;;;;;;23.92;15.82;;;128.10;2073.60;;;;;;5017093;28;20415;-77
2020/12/21 05:39:01;;;;;;;27.77;16.00;;;128.10;2073.60;;;;;;5017223;28;20069;-77
2020/12/21 05:41:27;;;;;;;26.40;16.23;;;128.10;2048.00;;;;;;5015027;28;20053;-78
2020/12/21 05:43:54;;;;;;;23.83;14.55;;;128.20;2048.00;;;;;;5016950;28;20022;-77
2020/12/21 05:46:24;;;;;;;27.42;16.58;;;128.10;2048.00;;;;;;5017164;28;20052;-77
2020/12/21 05:48:53;;;;;;;28.08;16.48;;;128.10;2048.00;;;;;;5017090;28;20021;-78
2020/12/21 05:51:21;;;;;;;29.30;17.40;;;128.10;2048.00;;;;;;5017030;28;20052;-77
2020/12/21 05:53:47;;;;;;;28.70;18.23;;;128.00;2048.00;;;;;;5016450;28;20060;-78
2020/12/21 05:56:13;;;;;;;30.23;18.20;;;128.10;2048.00;;;;;;5017055;28;20026;-78
2020/12/21 05:58:59;;;;;;;29.58;19.27;;;128.10;2048.00;;;;;;5016619;28;20065;-78
2020/12/21 06:01:26;;;;;;;33.97;22.05;;;128.00;2048.00;;;;;;5015722;28;20022;-77
2020/12/21 06:03:53;;;;;;;32.33;19.10;;;128.00;2048.00;;;;;;5016643;28;20064;-77
2020/12/21 06:06:24;;;;;;;29.55;17.05;;;128.00;2048.00;;;;;;5016906;28;20026;-78
2020/12/21 06:09:01;;;;;;;23.90;15.50;;;128.00;2048.00;;;;;;5016846;28;20104;-77
2020/12/21 06:11:28;;;;;;;24.30;12.93;;;128.00;2048.00;;;;;;5016419;28;20399;-77
2020/12/21 06:14:12;;;;;;;32.30;18.80;;;128.00;2048.00;;;;;;5016505;28;20457;-78
2020/12/21 06:16:39;;;;;;;49.17;24.13;;;128.10;2048.00;;;;;;5016582;28;20454;-78
2020/12/21 06:19:06;;;;;;;55.40;26.73;;;128.00;2073.60;;;;;;5016665;28;20034;-78
2020/12/21 06:21:40;;;;;;;41.53;23.05;;;128.00;2073.60;;;;;;5016659;28;20033;-78
2020/12/21 06:24:16;;;;;;;36.42;22.40;;;128.00;2073.60;;;;;;5015378;28;20064;-77
2020/12/21 06:26:42;;;;;;;36.80;20.85;;;103.30;2022.40;;;;;;5016579;28;20041;-78
2020/12/21 06:29:09;;;;;;;33.08;20.13;;;103.30;2048.00;;;;;;5016453;28;20026;-77
2020/12/21 06:31:42;;;;;;;35.92;22.98;;;103.30;2048.00;;;;;;5016494;28;20113;-76
2020/12/21 06:34:11;;;;;;;33.25;22.75;;;128.00;2073.60;;;;;;4999012;28;20057;-76
2020/12/21 06:36:38;;;;;;;42.70;25.27;;;128.00;2048.00;;;;;;5016611;28;20018;-75
2020/12/21 06:39:04;;;;;;;46.78;30.02;;;128.10;2048.00;;;;;;5016262;28;20399;-77
2020/12/21 06:41:30;;;;;;;47.05;26.55;;;128.00;2073.60;;;;;;5016378;28;20030;-78
2020/12/21 06:43:57;;;;;;;36.03;20.45;;;128.10;2073.60;;;;;;5016344;28;20323;-76
2020/12/21 06:46:24;;;;;;;29.02;18.05;;;128.00;2073.60;;;;;;5016212;28;20415;-76
2020/12/21 06:49:13;;;;;;;29.30;18.23;;;128.10;2073.60;;;;;;5014345;28;20038;-77
2020/12/21 06:51:48;;;;;;;34.85;20.30;;;128.10;2073.60;;;;;;5016462;28;20022;-76
2020/12/21 06:54:15;;;;;;;39.65;24.27;;;128.10;2073.60;;;;;;5014371;28;20042;-76
2020/12/21 06:56:42;;;;;;;36.55;22.23;;;128.20;2073.60;;;;;;5016330;28;20035;-76
2020/12/21 06:59:15;;;;;;;37.67;21.45;;;128.30;2073.60;;;;;;5015956;28;20022;-76
2020/12/21 07:01:43;;;;;;;40.80;24.42;;;128.30;2073.60;;;;;;5016068;28;20351;-76
2020/12/21 07:04:17;;;;;;;34.20;20.88;;;128.50;2048.00;;;;;;5016128;28;20034;-75
2020/12/21 07:06:48;;;;;;;43.22;26.63;;;128.40;2048.00;;;;;;4998714;28;20026;-76
2020/12/21 07:09:15;;;;;;;;;;;128.50;2073.60;;;;;;5016416;28;20092;-76
2020/12/21 07:11:42;;;;;;;42.95;20.00;;;128.50;2073.60;;;;;;5016037;28;20267;-75
2020/12/21 07:14:11;;;;;;;34.75;20.98;;;128.50;2073.60;;;;;;5015875;28;20057;-76
2020/12/21 07:16:37;;;;;;;33.88;21.30;;;128.50;2073.60;;;;;;5015962;28;20022;-76
2020/12/21 07:19:03;;;;;;;38.17;20.92;;;128.60;2073.60;;;;;;5016269;28;20097;-76
2020/12/21 07:21:30;;;;;;;26.77;16.50;;;128.60;2073.60;;;;;;5014569;28;20025;-76
2020/12/21 07:23:57;;;;;;;29.20;17.10;;;128.60;2073.60;;;;;;5018189;28;20062;-77
2020/12/21 07:26:24;;;;;;;22.92;14.02;;;128.60;2073.60;;;;;;5019594;28;20050;-76
2020/12/21 07:28:50;;;;;;;20.65;12.38;;;128.60;2073.60;;;;;;5019404;28;20026;-76
2020/12/21 07:31:18;;;;;;;20.98;12.70;;;128.60;2073.60;;;;;;5019649;28;20434;-75
2020/12/21 07:33:56;;;;;;;21.92;12.02;;;128.70;2073.60;;;;;;5002176;28;20068;-76
2020/12/21 07:36:30;;;;;;;23.13;12.95;;;128.60;2073.60;;;;;;5019307;28;20022;-76
2020/12/21 07:39:17;;;;;;;19.77;11.95;;;128.80;2073.60;;;;;;5019164;28;20018;-76
2020/12/21 07:42:04;;;;;;;27.90;14.57;;;128.80;2073.60;;;;;;5019327;28;20026;-76
2020/12/21 07:44:36;;;;;;;24.02;14.18;;;153.60;2048.00;;;;;;5019468;28;20025;-76
2020/12/21 07:47:33;;;;;;;21.20;13.38;;;153.60;2048.00;;;;;;5001709;28;20109;-75
2020/12/21 07:49:59;;;;;;;25.13;13.90;;;153.60;2048.00;;;;;;4920106;29;20060;-76
2020/12/21 07:52:26;;;;;;;20.80;13.45;;;153.70;2048.00;;;;;;4919976;29;20032;-76
2020/12/21 07:54:52;;;;;;;18.42;10.30;;;153.70;2048.00;;;;;;4920556;29;20103;-76
2020/12/21 07:57:17;;;;;;;16.90;10.85;;;153.70;2048.00;;;;;;4904711;29;20032;-77
2020/12/21 07:59:54;;;;;;;17.95;10.70;;;153.70;2073.60;;;;;;4920525;29;20036;-76
2020/12/21 08:02:26;;;;;;;14.52;10.40;;;153.80;2048.00;;;;;;4920565;29;20028;-76
2020/12/21 08:04:52;;;;;;;12.15;8.57;;;153.80;2048.00;;;;;;4920274;29;20458;-76
2020/12/21 08:07:18;;;;;;;14.48;9.57;;;153.80;2048.00;;;;;;4920490;29;20040;-76
2020/12/21 08:09:45;;;;;;;13.20;8.93;;;153.90;2048.00;;;;;;4920341;29;20486;-76
2020/12/21 08:12:12;;;;;;;15.95;9.73;;;153.90;2048.00;;;;;;4920212;29;20123;-76
2020/12/21 08:14:38;;;;;;;11.85;8.48;;;154.00;2048.00;;;;;;4919964;29;20028;-75
2020/12/21 08:17:17;;;;;;;14.20;8.00;;;154.10;2048.00;;;;;;4920289;29;20035;-75
2020/12/21 08:19:48;;;;;;;15.10;9.85;;;154.10;2048.00;;;;;;4904368;29;20047;-75
2020/12/21 08:22:21;;;;;;;12.93;9.25;;;154.20;2048.00;;;;;;4920161;29;20054;-75
2020/12/21 08:25:02;;;;;;;15.80;10.55;;;154.20;2048.00;;;;;;4920324;29;20118;-76
2020/12/21 08:27:28;;;;;;;;;;;154.30;2048.00;;;;;;5017617;28;20037;-75
2020/12/21 08:30:10;;;;;;;13.63;8.73;;;154.30;2022.40;;;;;;5018381;28;19905;-75
2020/12/21 08:32:36;;;;;;;14.10;9.98;;;154.30;2022.40;;;;;;5018010;28;20033;-75
2020/12/21 08:35:03;;;;;;;12.05;8.93;;;154.30;2022.40;;;;;;5017980;28;20033;-76
2020/12/21 08:37:28;;;;;;;10.93;8.30;;;154.30;2022.40;;;;;;5018067;28;20105;-76
2020/12/21 08:39:54;;;;;;;12.68;8.93;;;154.30;2022.40;;;;;;5018086;28;20157;-75
2020/12/21 08:42:20;;;;;;;13.70;9.77;;;154.40;2022.40;;;;;;5017578;28;20319;-75
2020/12/21 08:44:49;;;;;;;14.60;10.48;;;154.40;2022.40;;;;;;5017894;28;20025;-75
2020/12/21 08:47:15;;;;;;;13.65;10.15;;;154.50;2022.40;;;;;;5017725;28;20451;-76
2020/12/21 08:49:40;;;;;;;19.20;12.82;;;154.50;2022.40;;;;;;5017981;28;20044;-75
2020/12/21 08:52:06;;;;;;;20.00;12.18;;;154.50;2048.00;;;;;;5017749;28;20033;-76
2020/12/21 08:54:32;;;;;;;19.83;12.48;;;179.20;2048.00;;;;;;5016450;28;20435;-75
2020/12/21 08:56:58;;;;;;;23.75;13.60;;;179.20;2048.00;;;;;;5017723;28;20034;-75
2020/12/21 08:59:24;;;;;;;21.52;12.70;;;179.20;2022.40;;;;;;5017597;28;20335;-74
2020/12/21 09:01:51;;;;;;;15.18;10.43;;;179.30;2022.40;;;;;;5017824;28;20022;-74
2020/12/21 09:04:16;;;;;;;14.48;10.02;;;179.20;2048.00;;;;;;5017859;28;20036;-75
2020/12/21 09:06:42;;;;;;;22.13;13.63;;;179.40;2022.40;;;;;;4999628;28;20334;-75
2020/12/21 09:09:09;;;;;;;23.17;13.23;;;179.40;2073.60;;;;;;5017467;28;20300;-75
2020/12/21 09:11:35;;;;;;;20.67;15.43;;;179.50;2048.00;;;;;;5016319;28;20109;-75
2020/12/21 09:14:01;;;;;;;27.88;18.92;;;179.60;2022.40;;;;;;5016345;28;20030;-74
2020/12/21 09:16:29;;;;;;;30.48;19.20;;;179.70;2022.40;;;;;;5017430;28;20049;-75
2020/12/21 09:18:57;;;;;;;29.90;19.77;;;179.80;2022.40;;;;;;5017442;28;20030;-73
2020/12/21 09:21:30;;;;;;;21.83;14.18;;;179.80;1996.80;;;;;;5017378;28;20026;-75
2020/12/21 09:24:00;;;;;;;23.08;14.52;;;179.80;1996.80;;;;;;5017105;28;20065;-76
2020/12/21 09:26:27;;;;;;;25.85;17.15;;;179.90;1996.80;;;;;;5017302;28;20038;-76
2020/12/21 09:28:54;;;;;;;22.45;15.07;;;179.90;1971.20;;;;;;5017173;28;20030;-75
2020/12/21 09:31:21;;;;;;;20.25;12.20;;;179.90;1996.80;;;;;;5016291;28;20026;-75
2020/12/21 09:33:48;;;;;;;20.42;13.23;;;180.00;1971.20;;;;;;5017247;28;20411;-75
2020/12/21 09:36:15;;;;;;;18.10;11.43;;;180.10;1971.20;;;;;;5017333;28;20411;-75
2020/12/21 09:38:41;;;;;;;14.15;11.00;;;180.10;1971.20;;;;;;5017271;28;20014;-75
2020/12/21 09:41:08;;;;;;;14.55;10.02;;;204.80;1971.20;;;;;;5017122;28;20022;-75
2020/12/21 09:43:34;;;;;;;13.70;10.48;;;204.90;1971.20;;;;;;5016888;28;20032;-74
2020/12/21 09:46:00;;;;;;;17.88;11.68;;;204.90;1971.20;;;;;;5015490;28;20021;-75
2020/12/21 09:48:25;;;;;;;14.35;11.68;;;204.90;1971.20;;;;;;5016992;28;20034;-75
2020/12/21 09:50:51;;;;;;;19.75;12.25;;;204.90;1971.20;;;;;;5016793;28;20057;-75
2020/12/21 09:53:17;;;;;;;18.10;12.38;;;204.90;1971.20;;;;;;5009098;28;20054;-75
2020/12/21 09:55:43;;;;;;;15.48;10.95;;;204.90;1945.60;;;;;;4980008;28;20429;-75
2020/12/21 09:58:09;;;;;;;19.80;13.77;;;204.90;1945.60;;;;;;4978307;28;20435;-76
2020/12/21 10:00:35;;;;;;;19.52;11.95;;;204.90;1945.60;;;;;;4997041;28;20035;-74
2020/12/21 10:03:01;;;;;;;23.05;14.68;;;204.90;1945.60;;;;;;4997234;28;20065;-77
2020/12/21 10:05:27;;;;;;;13.82;10.00;;;204.90;1971.20;;;;;;4994723;28;20045;-75
2020/12/21 10:07:53;;;;;;;13.57;10.70;;;204.90;1945.60;;;;;;4995446;28;20041;-75
2020/12/21 10:10:18;;;;;;;18.52;11.27;;;204.90;1945.60;;;;;;4997052;28;20034;-75
2020/12/21 10:12:44;;;;;;;17.98;12.55;;;204.90;1920.00;;;;;;4996429;28;20474;-76
2020/12/21 10:15:10;;;;;;;19.10;13.27;;;204.90;1945.60;;;;;;4979741;28;20042;-76
2020/12/21 10:17:35;;;;;;;21.70;12.00;;;205.00;1945.60;;;;;;4997134;28;20028;-75
2020/12/21 10:20:02;;;;;;;20.27;11.75;;;205.00;1945.60;;;;;;5001906;28;20027;-75
2020/12/21 10:22:28;;;;;;;18.13;12.10;;;205.00;1945.60;;;;;;5015477;28;20032;-75
2020/12/21 10:24:55;;;;;;;17.88;11.57;;;205.10;1945.60;;;;;;5016539;28;20101;-78
2020/12/21 10:27:20;;;;;;;15.13;11.10;;;205.20;1945.60;;;;;;5016372;28;20033;-78
2020/12/21 10:29:48;;;;;;;17.70;12.93;;;205.30;1945.60;;;;;;5016624;28;20022;-75
2020/12/21 10:32:13;;;;;;;29.73;20.10;;;205.30;1971.20;;;;;;5016599;28;20045;-75
2020/12/21 10:34:39;;;;;;;18.80;12.45;;;205.30;1920.00;;;;;;5016345;28;20411;-73
2020/12/21 10:37:05;;;;;;;20.25;13.63;;;205.20;1920.00;;;;;;5016372;28;20026;-73
2020/12/21 10:39:30;;;;;;;23.88;17.98;;;205.20;1920.00;;;;;;5014830;28;20316;-75
2020/12/21 10:41:56;;;;;;;19.73;15.75;;;205.20;1920.00;;;;;;5016331;28;20050;-73
2020/12/21 10:44:22;;;;;;;16.02;12.80;;;205.20;1945.60;;;;;;5016145;28;20089;-75
2020/12/21 10:46:48;;;;;;;19.55;13.98;;;205.20;1945.60;;;;;;5016461;28;20023;-74
2020/12/21 10:49:13;;;;;;;17.88;13.05;;;205.20;1945.60;;;;;;5016431;28;20022;-73
2020/12/21 10:51:39;;;;;;;16.65;11.63;;;205.30;1945.60;;;;;;5015999;28;20026;-74
2020/12/21 10:54:05;;;;;;;20.30;14.10;;;205.30;1945.60;;;;;;5015822;28;20062;-73
2020/12/21 10:56:31;;;;;;;15.82;11.63;;;205.30;1920.00;;;;;;5016382;28;20420;-74
2020/12/21 10:58:57;;;;;;;21.20;12.73;;;205.20;1945.60;;;;;;5018655;28;20030;-73
2020/12/21 11:01:23;;;;;;;18.88;11.93;;;205.30;1971.20;;;;;;5019901;28;20347;-73
2020/12/21 11:03:49;;;;;;;25.75;12.95;;;205.30;1945.60;;;;;;5019858;28;20018;-74
2020/12/21 11:06:22;;;;;;;33.05;18.95;;;205.30;1945.60;;;;;;5019959;28;20092;-74
2020/12/21 11:08:49;;;;;;;28.27;17.55;;;205.30;1945.60;;;;;;5019810;28;20053;-74
2020/12/21 11:11:14;;;;;;;17.17;12.13;;;205.40;1945.60;;;;;;5019685;28;20022;-74
2020/12/21 11:13:42;;;;;;;18.67;12.38;;;205.40;1945.60;;;;;;5019453;28;20297;-74
2020/12/21 11:16:10;;;;;;;20.20;13.15;;;205.40;1945.60;;;;;;5019846;28;20284;-73
2020/12/21 11:18:36;;;;;;;16.73;13.18;;;205.40;1945.60;;;;;;5019496;28;20025;-73
2020/12/21 11:21:02;;;;;;;18.13;12.10;;;205.50;1945.60;;;;;;5019473;28;20026;-72
2020/12/21 11:23:28;;;;;;;17.15;12.70;;;205.50;1945.60;;;;;;5018978;28;20040;-73
2020/12/21 11:25:53;;;;;;;18.20;12.85;;;205.50;1945.60;;;;;;5019364;28;20029;-73
2020/12/21 11:28:19;;;;;;;16.55;12.50;;;205.50;1945.60;;;;;;5019395;28;20029;-77
2020/12/21 11:30:45;;;;;;;20.55;13.98;;;205.50;1945.60;;;;;;5019536;28;20046;-76
2020/12/21 11:33:13;;;;;;;19.92;13.20;;;205.60;1945.60;;;;;;5019557;28;20050;-72
2020/12/21 11:35:39;;;;;;;19.90;14.10;;;205.60;1945.60;;;;;;5019162;28;20049;-74
2020/12/21 11:38:05;;;;;;;16.35;12.00;;;205.60;1945.60;;;;;;5019263;28;20077;-75
2020/12/21 11:40:33;;;;;;;19.90;12.98;;;205.60;1945.60;;;;;;5018733;28;20034;-73
2020/12/21 11:42:59;;;;;;;20.45;15.13;;;205.60;1945.60;;;;;;5019154;28;20054;-74
2020/12/21 11:45:25;;;;;;;19.17;14.13;;;205.60;1945.60;;;;;;5019024;28;20056;-74
2020/12/21 11:47:50;;;;;;;20.75;15.23;;;205.70;1945.60;;;;;;5001707;28;20072;-74
2020/12/21 11:50:16;;;;;;;18.17;13.35;;;205.70;1945.60;;;;;;5018825;28;20037;-74
2020/12/21 11:52:42;;;;;;;20.58;12.48;;;205.70;1945.60;;;;;;5018743;28;20073;-74
2020/12/21 11:55:08;;;;;;;22.75;14.70;;;205.70;1945.60;;;;;;5019107;28;20030;-74
2020/12/21 11:57:33;;;;;;;21.13;14.80;;;205.70;1945.60;;;;;;5018793;28;20026;-75
2020/12/21 12:00:00;;;;;;;26.75;16.52;;;205.70;1945.60;;;;;;5018673;28;20067;-75
2020/12/21 12:02:25;;;;;;;33.38;19.35;;;205.70;1945.60;;;;;;5018594;28;20032;-72